createdAt,value
2019-03-31T00:01:23.868Z,11.60
2019-03-31T00:03:52.481Z,11.50
2019-03-31T00:06:21.039Z,11.40
2019-03-31T00:08:49.640Z,11.40
2019-03-31T00:11:18.374Z,11.40
2019-03-31T00:13:47.147Z,11.40
2019-03-31T00:16:15.766Z,11.30
2019-03-31T00:18:44.293Z,11.30
2019-03-31T00:21:25.202Z,11.30
2019-03-31T00:23:54.194Z,11.40
2019-03-31T00:26:22.777Z,11.30
2019-03-31T00:28:51.442Z,11.30
2019-03-31T00:31:22.313Z,11.40
2019-03-31T00:33:50.454Z,11.30
2019-03-31T00:36:19.116Z,11.00
2019-03-31T00:38:47.714Z,11.00
2019-03-31T00:41:16.408Z,11.00
2019-03-31T00:43:45.119Z,11.00
2019-03-31T00:46:13.868Z,11.00
2019-03-31T00:48:42.469Z,11.10
2019-03-31T00:51:11.110Z,11.00
2019-03-31T00:53:39.666Z,11.00
2019-03-31T00:56:08.313Z,11.00
2019-03-31T00:58:36.891Z,11.10
2019-03-31T01:01:07.899Z,11.10
2019-03-31T01:03:36.995Z,11.20
2019-03-31T01:06:06.611Z,11.20
2019-03-31T01:08:35.888Z,11.10
2019-03-31T01:11:08.346Z,11.10
2019-03-31T01:13:37.302Z,11.00
2019-03-31T01:16:26.131Z,11.00
2019-03-31T01:18:54.713Z,11.00
2019-03-31T01:21:23.308Z,10.90
2019-03-31T01:23:52.006Z,10.90
2019-03-31T01:26:22.522Z,10.90
2019-03-31T01:28:51.868Z,10.80
2019-03-31T01:31:20.889Z,10.70
2019-03-31T01:33:50.078Z,10.70
2019-03-31T01:36:18.764Z,10.70
2019-03-31T01:38:47.487Z,10.70
2019-03-31T01:41:35.417Z,10.70
2019-03-31T01:44:04.537Z,10.60
2019-03-31T01:46:33.546Z,10.70
2019-03-31T01:49:02.368Z,10.60
2019-03-31T01:51:31.046Z,10.60
2019-03-31T01:53:59.638Z,10.50
2019-03-31T01:56:28.245Z,10.50
2019-03-31T01:58:57.139Z,10.40
2019-03-31T02:01:26.133Z,10.40
2019-03-31T02:03:55.204Z,10.40
2019-03-31T02:06:24.063Z,10.40
2019-03-31T02:08:52.636Z,10.30
2019-03-31T02:11:21.236Z,10.30
2019-03-31T02:13:49.991Z,10.30
2019-03-31T02:16:18.543Z,10.20
2019-03-31T02:18:47.227Z,10.20
2019-03-31T02:21:16.085Z,10.20
2019-03-31T02:23:44.662Z,10.20
2019-03-31T02:26:13.280Z,10.30
2019-03-31T02:28:41.840Z,10.20
2019-03-31T02:31:10.523Z,10.20
2019-03-31T02:33:39.164Z,10.10
2019-03-31T02:36:07.928Z,10.00
2019-03-31T02:38:36.644Z,10.00
2019-03-31T02:41:05.503Z,10.00
2019-03-31T02:43:34.241Z,10.00
2019-03-31T02:46:02.977Z,10.00
2019-03-31T02:48:31.621Z,9.90
2019-03-31T02:51:00.289Z,9.90
2019-03-31T02:53:29.008Z,9.80
2019-03-31T02:55:59.157Z,9.80
2019-03-31T02:58:28.599Z,9.70
2019-03-31T03:00:57.805Z,9.80
2019-03-31T03:03:28.038Z,9.80
2019-03-31T03:05:58.894Z,9.70
2019-03-31T03:08:28.878Z,9.80
2019-03-31T03:11:00.873Z,9.80
2019-03-31T03:13:32.039Z,9.80
2019-03-31T03:16:09.512Z,9.90
2019-03-31T03:18:38.218Z,9.80
2019-03-31T03:21:06.900Z,9.90
2019-03-31T03:23:35.468Z,9.90
2019-03-31T03:26:04.313Z,9.90
2019-03-31T03:28:32.873Z,9.90
2019-03-31T03:31:01.565Z,9.90
2019-03-31T03:33:30.344Z,9.80
2019-03-31T03:35:58.977Z,9.80
2019-03-31T03:38:27.609Z,9.80
2019-03-31T03:40:56.149Z,9.70
2019-03-31T03:43:24.806Z,9.70
2019-03-31T03:45:53.381Z,9.50
2019-03-31T03:48:21.978Z,9.50
2019-03-31T03:50:50.590Z,9.50
2019-03-31T03:53:19.247Z,9.60
2019-03-31T03:55:47.854Z,9.50
2019-03-31T03:58:16.549Z,9.50
2019-03-31T04:00:45.240Z,9.50
2019-03-31T04:03:33.232Z,9.50
2019-03-31T04:06:01.833Z,9.40
2019-03-31T04:08:30.451Z,9.30
2019-03-31T04:11:14.193Z,9.30
2019-03-31T04:13:42.869Z,9.30
2019-03-31T04:16:11.659Z,9.30
2019-03-31T04:18:59.589Z,9.20
2019-03-31T04:21:28.253Z,9.10
2019-03-31T04:23:57.373Z,9.20
2019-03-31T04:26:28.512Z,9.20
2019-03-31T04:28:57.105Z,9.30
2019-03-31T04:31:26.828Z,9.30
2019-03-31T04:33:55.413Z,9.20
2019-03-31T04:36:24.087Z,9.10
2019-03-31T04:38:52.779Z,9.10
2019-03-31T04:41:21.356Z,9.10
2019-03-31T04:43:50.104Z,9.10
2019-03-31T04:46:18.938Z,9.10
2019-03-31T04:48:47.783Z,9.10
2019-03-31T04:51:16.459Z,9.10
2019-03-31T04:53:45.203Z,9.10
2019-03-31T04:56:13.816Z,9.00
2019-03-31T04:58:43.294Z,8.90
2019-03-31T05:01:11.976Z,8.90
2019-03-31T05:03:40.682Z,8.90
2019-03-31T05:06:09.339Z,9.00
2019-03-31T05:08:37.900Z,8.90
2019-03-31T05:11:06.687Z,8.90
2019-03-31T05:13:35.311Z,8.90
2019-03-31T05:16:04.256Z,9.00
2019-03-31T05:18:32.815Z,9.10
2019-03-31T05:21:01.412Z,9.20
2019-03-31T05:23:30.105Z,9.10
2019-03-31T05:25:58.769Z,9.10
2019-03-31T05:28:27.380Z,9.00
2019-03-31T05:30:56.038Z,9.00
2019-03-31T05:33:24.649Z,9.00
2019-03-31T05:35:53.356Z,8.90
2019-03-31T05:38:22.036Z,8.90
2019-03-31T05:40:50.602Z,8.90
2019-03-31T05:43:19.197Z,8.90
2019-03-31T05:45:48.055Z,8.90
2019-03-31T05:48:16.749Z,8.90
2019-03-31T05:50:45.607Z,9.00
2019-03-31T05:53:14.254Z,9.00
2019-03-31T05:55:42.862Z,8.90
2019-03-31T05:58:11.455Z,9.00
2019-03-31T06:00:41.870Z,9.00
2019-03-31T06:03:10.602Z,9.00
2019-03-31T06:05:39.430Z,8.90
2019-03-31T06:08:08.020Z,8.80
2019-03-31T06:10:36.694Z,8.80
2019-03-31T06:13:05.410Z,8.80
2019-03-31T06:15:34.438Z,8.80
2019-03-31T06:18:03.080Z,8.80
2019-03-31T06:20:31.820Z,8.80
2019-03-31T06:23:00.429Z,8.90
2019-03-31T06:25:28.986Z,8.90
2019-03-31T06:27:57.723Z,9.00
2019-03-31T06:30:26.360Z,9.00
2019-03-31T06:32:55.577Z,9.10
2019-03-31T06:35:24.451Z,9.00
2019-03-31T06:37:53.023Z,9.10
2019-03-31T06:40:42.404Z,9.10
2019-03-31T06:43:11.220Z,9.20
2019-03-31T06:45:39.885Z,9.30
2019-03-31T06:48:08.523Z,9.50
2019-03-31T06:50:37.843Z,9.50
2019-03-31T06:53:06.679Z,9.60
2019-03-31T06:55:35.315Z,9.70
2019-03-31T06:58:04.001Z,9.80
2019-03-31T07:00:32.584Z,9.80
2019-03-31T07:03:01.267Z,9.90
2019-03-31T07:05:29.943Z,10.10
2019-03-31T07:07:58.556Z,10.30
2019-03-31T07:10:27.285Z,10.40
2019-03-31T07:12:59.546Z,10.40
2019-03-31T07:15:28.121Z,10.60
2019-03-31T07:17:56.767Z,10.60
2019-03-31T07:20:25.744Z,10.60
2019-03-31T07:22:54.419Z,10.60
2019-03-31T07:25:23.029Z,10.70
2019-03-31T07:27:51.770Z,11.00
2019-03-31T07:30:22.874Z,11.10
2019-03-31T07:32:53.068Z,11.20
2019-03-31T07:35:21.796Z,11.40
2019-03-31T07:37:50.412Z,11.70
2019-03-31T07:40:21.851Z,12.00
2019-03-31T07:42:51.315Z,12.20
2019-03-31T07:45:20.687Z,12.40
2019-03-31T07:47:49.377Z,12.50
2019-03-31T07:50:19.774Z,12.60
2019-03-31T07:52:48.525Z,12.80
2019-03-31T07:55:17.955Z,13.00
2019-03-31T07:57:46.632Z,13.20
2019-03-31T08:00:23.291Z,13.30
2019-03-31T08:02:52.182Z,13.50
2019-03-31T08:05:32.476Z,13.60
2019-03-31T08:07:51.304Z,13.80
2019-03-31T08:10:21.808Z,13.90
2019-03-31T08:12:50.513Z,14.00
2019-03-31T08:15:19.201Z,14.10
2019-03-31T08:17:47.844Z,14.30
2019-03-31T08:20:18.686Z,14.30
2019-03-31T08:22:49.030Z,14.50
2019-03-31T08:25:18.483Z,14.50
2019-03-31T08:27:47.200Z,14.60
2019-03-31T08:30:17.837Z,14.70
2019-03-31T08:32:46.424Z,14.90
2019-03-31T08:35:15.347Z,14.90
2019-03-31T08:37:44.038Z,15.00
2019-03-31T08:40:13.028Z,15.10
2019-03-31T08:42:41.818Z,15.20
2019-03-31T08:45:11.096Z,15.30
2019-03-31T08:47:40.061Z,15.30
2019-03-31T08:50:09.446Z,15.40
2019-03-31T08:52:38.104Z,15.40
2019-03-31T08:55:07.667Z,15.50
2019-03-31T08:57:36.355Z,15.50
2019-03-31T09:00:08.323Z,15.60
2019-03-31T09:02:36.976Z,15.70
2019-03-31T09:05:08.249Z,15.70
2019-03-31T09:07:37.241Z,15.70
2019-03-31T09:10:25.255Z,15.80
2019-03-31T09:12:53.967Z,15.80
2019-03-31T09:15:22.653Z,15.80
2019-03-31T09:17:53.997Z,15.90
2019-03-31T09:20:21.943Z,15.90
2019-03-31T09:22:50.834Z,16.00
2019-03-31T09:25:19.469Z,16.00
2019-03-31T09:27:48.208Z,16.00
2019-03-31T09:30:17.335Z,16.00
2019-03-31T09:32:47.718Z,16.10
2019-03-31T09:35:17.180Z,16.10
2019-03-31T09:37:45.886Z,16.10
2019-03-31T09:40:16.606Z,16.10
2019-03-31T09:42:45.408Z,16.20
2019-03-31T09:45:14.886Z,16.20
2019-03-31T09:47:46.492Z,16.20
2019-03-31T09:50:17.589Z,16.20
2019-03-31T09:52:46.602Z,16.30
2019-03-31T09:55:16.969Z,16.30
2019-03-31T09:57:45.631Z,16.30
2019-03-31T10:00:17.089Z,16.30
2019-03-31T10:02:45.828Z,16.40
2019-03-31T10:05:15.885Z,16.40
2019-03-31T10:07:46.447Z,16.40
2019-03-31T10:10:33.163Z,16.40
2019-03-31T10:13:02.260Z,16.40
2019-03-31T10:15:31.045Z,16.30
2019-03-31T10:17:59.690Z,16.40
2019-03-31T10:20:31.305Z,16.40
2019-03-31T10:22:59.101Z,16.40
2019-03-31T10:25:27.847Z,16.50
2019-03-31T10:27:56.404Z,16.50
2019-03-31T10:30:39.618Z,16.50
2019-03-31T10:33:08.442Z,16.50
2019-03-31T10:35:37.076Z,16.50
2019-03-31T10:38:06.219Z,16.60
2019-03-31T10:40:34.854Z,16.70
2019-03-31T10:43:03.528Z,16.70
2019-03-31T10:45:32.292Z,16.70
2019-03-31T10:48:00.995Z,16.70
2019-03-31T10:50:29.637Z,16.80
2019-03-31T10:52:58.220Z,16.90
2019-03-31T10:55:26.973Z,16.90
2019-03-31T10:57:55.610Z,17.00
2019-03-31T11:00:32.661Z,17.00
2019-03-31T11:03:01.615Z,17.10
2019-03-31T11:05:30.360Z,17.30
2019-03-31T11:07:59.061Z,17.40
2019-03-31T11:10:27.716Z,17.40
2019-03-31T11:12:56.410Z,17.40
2019-03-31T11:15:25.064Z,17.50
2019-03-31T11:17:53.684Z,17.60
2019-03-31T11:20:22.288Z,17.60
2019-03-31T11:22:55.408Z,17.70
2019-03-31T11:25:28.951Z,17.80
2019-03-31T11:27:54.463Z,17.80
2019-03-31T11:30:23.104Z,17.80
2019-03-31T11:32:51.742Z,17.80
2019-03-31T11:35:20.453Z,17.80
2019-03-31T11:37:50.226Z,17.80
2019-03-31T11:40:18.949Z,17.80
2019-03-31T11:42:47.549Z,17.80
2019-03-31T11:45:17.320Z,17.90
2019-03-31T11:47:45.999Z,17.90
2019-03-31T11:50:15.243Z,17.90
2019-03-31T11:52:45.733Z,17.90
2019-03-31T11:55:14.820Z,18.00
2019-03-31T11:57:43.381Z,18.10
2019-03-31T12:00:14.046Z,18.20
2019-03-31T12:02:42.762Z,18.30
2019-03-31T12:05:11.558Z,18.30
2019-03-31T12:07:46.639Z,18.30
2019-03-31T12:10:11.110Z,18.20
2019-03-31T12:12:39.768Z,18.10
2019-03-31T12:15:09.308Z,18.10
2019-03-31T12:17:37.988Z,18.00
2019-03-31T12:20:09.819Z,18.00
2019-03-31T12:22:38.609Z,18.00
2019-03-31T12:25:09.092Z,18.00
2019-03-31T12:27:38.104Z,18.00
2019-03-31T12:30:07.771Z,18.00
2019-03-31T12:32:38.639Z,17.90
2019-03-31T12:35:09.401Z,17.90
2019-03-31T12:37:42.534Z,18.00
2019-03-31T12:40:10.367Z,18.00
2019-03-31T12:42:39.238Z,18.10
2019-03-31T12:45:08.772Z,18.30
2019-03-31T12:47:37.422Z,18.40
2019-03-31T12:50:26.833Z,18.40
2019-03-31T12:52:55.509Z,18.40
2019-03-31T12:55:24.162Z,18.40
2019-03-31T12:57:52.882Z,18.40
2019-03-31T13:00:21.674Z,18.40
2019-03-31T13:02:50.327Z,18.40
2019-03-31T13:05:19.028Z,18.30
2019-03-31T13:08:07.114Z,18.30
2019-03-31T13:10:35.978Z,18.40
2019-03-31T13:13:04.837Z,18.30
2019-03-31T13:15:33.559Z,18.30
2019-03-31T13:18:03.294Z,18.20
2019-03-31T13:20:34.851Z,18.10
2019-03-31T13:23:03.573Z,18.10
2019-03-31T13:25:32.123Z,18.10
2019-03-31T13:28:00.747Z,18.00
2019-03-31T13:30:29.503Z,18.00
2019-03-31T13:32:58.091Z,18.00
2019-03-31T13:35:26.757Z,17.90
2019-03-31T13:37:55.398Z,17.90
2019-03-31T13:40:23.977Z,17.90
2019-03-31T13:42:52.798Z,17.90
2019-03-31T13:45:21.415Z,18.00
2019-03-31T13:47:50.037Z,18.00
2019-03-31T13:50:20.056Z,18.00
2019-03-31T13:52:48.668Z,18.10
2019-03-31T13:55:17.381Z,18.30
2019-03-31T13:57:47.538Z,18.50
2019-03-31T14:00:37.365Z,18.70
2019-03-31T14:03:06.525Z,18.90
2019-03-31T14:05:35.350Z,19.00
2019-03-31T14:08:04.841Z,19.00
2019-03-31T14:10:34.124Z,19.10
2019-03-31T14:13:03.088Z,19.10
2019-03-31T14:15:31.883Z,19.00
2019-03-31T14:18:00.594Z,19.00
2019-03-31T14:20:29.316Z,18.90
2019-03-31T14:22:57.998Z,19.00
2019-03-31T14:25:26.559Z,19.00
2019-03-31T14:27:55.240Z,19.00
2019-03-31T14:30:23.972Z,18.80
2019-03-31T14:32:52.663Z,18.80
2019-03-31T14:35:23.410Z,18.70
2019-03-31T14:37:51.940Z,18.70
2019-03-31T14:40:39.922Z,18.80
2019-03-31T14:43:08.603Z,18.90
2019-03-31T14:45:37.575Z,18.80
2019-03-31T14:48:06.511Z,18.80
2019-03-31T14:50:37.657Z,18.70
2019-03-31T14:53:07.795Z,18.70
2019-03-31T14:55:36.948Z,18.70
2019-03-31T14:58:07.916Z,18.60
2019-03-31T15:00:36.828Z,18.60
2019-03-31T15:03:05.873Z,18.60
2019-03-31T15:05:55.346Z,18.70
2019-03-31T15:08:23.929Z,18.70
2019-03-31T15:10:52.623Z,18.70
2019-03-31T15:13:21.199Z,18.80
2019-03-31T15:15:49.812Z,18.80
2019-03-31T15:18:18.369Z,18.90
2019-03-31T15:20:46.971Z,18.90
2019-03-31T15:23:15.571Z,18.80
2019-03-31T15:25:44.501Z,18.70
2019-03-31T15:28:13.186Z,18.80
2019-03-31T15:30:41.728Z,18.80
2019-03-31T15:33:10.420Z,18.80
2019-03-31T15:35:39.185Z,18.80
2019-03-31T15:38:07.840Z,18.80
2019-03-31T15:40:36.476Z,18.90
2019-03-31T15:43:06.031Z,19.00
2019-03-31T15:45:34.763Z,19.00
2019-03-31T15:48:03.398Z,19.00
2019-03-31T15:50:32.089Z,18.90
2019-03-31T15:53:00.717Z,18.90
2019-03-31T15:55:29.995Z,18.90
2019-03-31T15:58:11.315Z,18.80
2019-03-31T16:00:39.969Z,18.80
2019-03-31T16:03:08.619Z,18.80
2019-03-31T16:05:37.269Z,18.70
2019-03-31T16:08:05.840Z,18.70
2019-03-31T16:10:34.553Z,18.70
2019-03-31T16:13:03.160Z,18.70
2019-03-31T16:15:31.913Z,18.70
2019-03-31T16:18:00.535Z,18.80
2019-03-31T16:20:29.187Z,18.70
2019-03-31T16:22:57.795Z,18.70
2019-03-31T16:25:30.719Z,18.70
2019-03-31T16:27:59.568Z,18.70
2019-03-31T16:30:28.472Z,18.70
2019-03-31T16:32:57.159Z,18.70
2019-03-31T16:35:45.210Z,18.60
2019-03-31T16:38:13.779Z,18.60
2019-03-31T16:40:42.501Z,18.50
2019-03-31T16:43:11.112Z,18.40
2019-03-31T16:45:40.560Z,18.40
2019-03-31T16:48:09.183Z,18.40
2019-03-31T16:50:57.067Z,18.40
2019-03-31T16:53:25.767Z,18.30
2019-03-31T16:55:54.343Z,18.40
2019-03-31T16:58:22.944Z,18.40
2019-03-31T17:00:51.591Z,18.30
2019-03-31T17:03:20.315Z,18.30
2019-03-31T17:05:49.020Z,18.30
2019-03-31T17:08:17.634Z,18.30
2019-03-31T17:10:46.240Z,18.20
2019-03-31T17:13:14.882Z,18.30
2019-03-31T17:15:43.935Z,18.20
2019-03-31T17:18:12.563Z,18.20
2019-03-31T17:20:44.381Z,18.10
2019-03-31T17:23:32.433Z,18.20
2019-03-31T17:26:01.122Z,18.10
2019-03-31T17:28:29.692Z,18.10
2019-03-31T17:30:58.728Z,18.10
2019-03-31T17:33:30.213Z,18.10
2019-03-31T17:35:57.917Z,18.00
2019-03-31T17:38:26.532Z,18.00
2019-03-31T17:40:55.227Z,18.00
2019-03-31T17:43:23.889Z,17.90
2019-03-31T17:45:52.555Z,17.90
2019-03-31T17:48:21.111Z,17.90
2019-03-31T17:50:49.845Z,17.80
2019-03-31T17:53:18.475Z,17.80
2019-03-31T17:55:47.389Z,17.80
2019-03-31T17:58:16.199Z,17.70
2019-03-31T18:00:44.867Z,17.70
2019-03-31T18:03:15.580Z,17.70
2019-03-31T18:05:44.063Z,17.70
2019-03-31T18:08:12.704Z,17.70
2019-03-31T18:10:41.490Z,17.60
2019-03-31T18:13:10.055Z,17.60
2019-03-31T18:15:38.854Z,17.60
2019-03-31T18:18:07.467Z,17.50
2019-03-31T18:20:36.153Z,17.50
2019-03-31T18:23:04.916Z,17.50
2019-03-31T18:25:33.970Z,17.50
2019-03-31T18:28:02.563Z,17.40
2019-03-31T18:30:31.324Z,17.40
2019-03-31T18:32:59.941Z,17.40
2019-03-31T18:35:28.581Z,17.30
2019-03-31T18:37:57.243Z,17.30
2019-03-31T18:40:34.782Z,17.30
2019-03-31T18:42:56.532Z,17.30
2019-03-31T18:45:25.195Z,17.20
2019-03-31T18:47:53.862Z,17.20
2019-03-31T18:50:22.480Z,17.20
2019-03-31T18:52:51.059Z,17.10
2019-03-31T18:55:33.164Z,17.20
2019-03-31T18:58:03.489Z,17.10
2019-03-31T19:00:33.754Z,17.00
2019-03-31T19:03:20.387Z,17.00
2019-03-31T19:05:53.399Z,16.90
2019-03-31T19:08:26.425Z,16.90
2019-03-31T19:11:14.882Z,16.90
2019-03-31T19:13:55.261Z,16.90
2019-03-31T19:16:31.950Z,16.80
2019-03-31T19:19:17.693Z,16.70
2019-03-31T19:21:55.199Z,16.60
2019-03-31T19:24:28.593Z,16.60
2019-03-31T19:26:58.870Z,16.60
2019-03-31T19:29:32.101Z,16.60
2019-03-31T19:32:08.162Z,16.60
2019-03-31T19:34:40.954Z,16.60
2019-03-31T19:37:11.312Z,16.60
2019-03-31T19:39:47.537Z,16.60
2019-03-31T19:42:23.531Z,16.60
2019-03-31T19:44:53.780Z,16.50
2019-03-31T19:47:29.636Z,16.50
2019-03-31T19:50:12.035Z,16.50
2019-03-31T19:52:57.632Z,16.50
2019-03-31T19:55:27.956Z,16.50
2019-03-31T19:58:14.436Z,16.40
2019-03-31T20:01:00.037Z,16.50
2019-03-31T20:03:30.371Z,16.40
2019-03-31T20:06:09.800Z,16.30
2019-03-31T20:08:42.791Z,16.30
2019-03-31T20:11:18.797Z,16.20
2019-03-31T20:13:49.071Z,16.20
2019-03-31T20:16:35.275Z,16.20
2019-03-31T20:19:05.694Z,16.20
2019-03-31T20:21:38.868Z,16.10
2019-03-31T20:24:12.137Z,16.10
2019-03-31T20:26:58.614Z,16.00
2019-03-31T20:29:40.869Z,15.90
2019-03-31T20:32:13.802Z,15.80
2019-03-31T20:34:50.252Z,15.80
2019-03-31T20:37:29.479Z,15.80
2019-03-31T20:40:15.051Z,15.70
2019-03-31T20:42:51.320Z,15.70
2019-03-31T20:45:19.891Z,15.60
2019-03-31T20:47:48.533Z,15.60
2019-03-31T20:50:17.430Z,15.60
2019-03-31T20:52:46.096Z,15.60
2019-03-31T20:55:16.526Z,15.70
2019-03-31T20:57:45.022Z,15.70
2019-03-31T21:00:14.511Z,15.70
2019-03-31T21:02:43.139Z,15.70
2019-03-31T21:05:12.328Z,15.60
2019-03-31T21:07:41.008Z,15.60
2019-03-31T21:10:10.035Z,15.50
2019-03-31T21:12:38.676Z,15.40
2019-03-31T21:15:07.485Z,15.40
2019-03-31T21:17:36.257Z,15.30
2019-03-31T21:20:06.053Z,15.30
2019-03-31T21:22:34.735Z,15.20
2019-03-31T21:25:05.631Z,15.20
2019-03-31T21:27:34.261Z,15.20
2019-03-31T21:30:03.081Z,15.10
2019-03-31T21:32:31.660Z,15.10
2019-03-31T21:35:00.527Z,15.00
2019-03-31T21:37:29.328Z,14.90
2019-03-31T21:39:57.832Z,15.00
2019-03-31T21:42:26.403Z,14.90
2019-03-31T21:44:54.984Z,14.90
2019-03-31T21:47:23.645Z,14.90
2019-03-31T21:49:52.431Z,14.90
2019-03-31T21:52:20.985Z,14.80
2019-03-31T21:54:49.675Z,14.80
2019-03-31T21:57:18.227Z,14.70
2019-03-31T21:59:47.033Z,14.80
2019-03-31T22:02:15.844Z,14.80
2019-03-31T22:04:44.551Z,14.70
2019-03-31T22:07:13.138Z,14.80
2019-03-31T22:09:41.821Z,14.90
2019-03-31T22:12:10.644Z,14.80
2019-03-31T22:14:39.358Z,14.80
2019-03-31T22:17:08.194Z,14.80
2019-03-31T22:19:36.785Z,14.80
2019-03-31T22:22:05.491Z,14.80
2019-03-31T22:24:34.222Z,14.80
2019-03-31T22:27:03.077Z,14.70
2019-03-31T22:29:31.840Z,14.70
2019-03-31T22:32:00.454Z,14.70
2019-03-31T22:34:29.296Z,14.80
2019-03-31T22:36:57.886Z,14.80
2019-03-31T22:39:26.475Z,14.80
2019-03-31T22:41:55.138Z,14.80
2019-03-31T22:44:23.943Z,14.80
2019-03-31T22:46:54.393Z,14.80
2019-03-31T22:49:22.884Z,14.80
2019-03-31T22:51:51.511Z,14.80
2019-03-31T22:54:20.177Z,14.70
2019-03-31T22:56:48.742Z,14.80
2019-03-31T22:59:17.427Z,14.70
2019-03-31T23:01:46.053Z,14.60
2019-03-31T23:04:14.603Z,14.70
2019-03-31T23:06:43.216Z,14.60
2019-03-31T23:09:12.036Z,14.60
2019-03-31T23:11:40.642Z,14.40
2019-03-31T23:14:09.465Z,14.50
2019-03-31T23:16:38.131Z,14.50
2019-03-31T23:19:07.751Z,14.40
2019-03-31T23:21:36.493Z,14.40
2019-03-31T23:24:05.521Z,14.40
2019-03-31T23:26:34.141Z,14.40
2019-03-31T23:29:02.964Z,14.40
2019-03-31T23:31:31.950Z,14.40
2019-03-31T23:34:00.594Z,14.30
2019-03-31T23:36:29.271Z,14.30
2019-03-31T23:38:58.563Z,14.30
2019-03-31T23:41:27.327Z,14.20
2019-03-31T23:43:56.103Z,14.20
2019-03-31T23:46:24.890Z,14.10
2019-03-31T23:48:53.575Z,14.10
2019-03-31T23:51:22.192Z,14.00
2019-03-31T23:53:50.818Z,14.10
2019-03-31T23:56:19.582Z,14.00
2019-03-31T23:58:48.197Z,14.00
